CYHUCYSC

Guest
Details From CYHU - St Hubert
To CYSC - SHERBROOKE
Flight Number -
Tags generated
Created
Modified
Stats Distance 78 nm / 145 km
Max Altitude 1,700 ft / 518 m
Waypoints 3
Social Downloads 1
Likes 0
Share VATSIM

Download

Looking for another format? Having issues loading an existing format? Contact us
Advertisement - Login to hide

Notes

Basic altitude profile: - Ascent Rate: 2500ft/min - Ascent Speed: 250kts - Cruise Altitude: 35000ft - Cruise Speed: 420kts - Descent Rate: 1500ft/min - Descent Speed: 250kts

Route

CYHU YSC CYSC

ID Type Via Altitude Latitude Longitude Leg Dist Tot Dist Heading (true) Name
O CYHU APT - 0 ft / 0 m 45.51430˚ -73.41635˚ - 0 nm - St Hubert
YSC VOR - 1,700 ft / 518 m 45.31633˚ -71.78811˚ 69 nm 69 nm 99° / 100° SHERBROOKE VORTAC
O CYSC APT - 0 ft / 0 m 45.43849˚ -71.69137˚ 8 nm 78 nm 29° / 29° SHERBROOKE

Altitude Profile

Advertisement - Login to hide

CYHU

Details ICAO CYHU (YHU)
Name St Hubert
Region Canada
Timezone America/Montreal (UTC-5.0)
Stats Elevation 90 ft / 27 m (AMSL)
Location 45.514297° -73.416351°
Runways 3
Magnetic Variation 14.500° W

METAR

CYHU 110533Z AUTO 01009KT 9SM -SN SCT029 BKN037 BKN044 OVC060 M05/M06 A2982 RMK SLP100

Decode

TAF

TAF CYHU 102338Z 1100/1124 23006KT P6SM BKN050 OVC120 FM110300 20010KT P6SM BKN030 TEMPO 1103/1105 4SM -SHSN OVC030 BECMG 1103/1105 27012KT FM110500 27012KT P6SM BKN030 FM111200 32008KT P6SM SCT030 BECMG 1116/1118 26008KT FM112100 25008KT P6SM BKN180 RMK FCST BASED ON AUTO OBS. NXT FCST BY 110600Z

Decode

Departure Runways

ID Width Length Bearing (true) Bearing (mag) Surface Threshold Offset Overrun Length
06L 150 ft / 46 m 7,870 ft / 2,399 m 46.95° 61.45° Asphalt 1,100 ft / 335 m 0 ft / 0 m
06R 100 ft / 30 m 3,874 ft / 1,181 m 47.16° 61.66° Asphalt 0 ft / 0 m 0 ft / 0 m
10 150 ft / 46 m 2,787 ft / 849 m 83.75° 98.25° Asphalt 0 ft / 0 m 0 ft / 0 m
24L 100 ft / 30 m 3,874 ft / 1,181 m 227.16° 241.66° Asphalt 0 ft / 0 m 0 ft / 0 m
24R 150 ft / 46 m 7,870 ft / 2,399 m 226.97° 241.47° Asphalt 0 ft / 0 m 90 ft / 27 m
28 150 ft / 46 m 2,787 ft / 849 m 263.75° 278.25° Asphalt 0 ft / 0 m 0 ft / 0 m

CYSC

Details ICAO CYSC (YSC)
Name SHERBROOKE
Region Canada
Timezone America/Montreal (UTC-5.0)
Stats Elevation 792 ft / 241 m (AMSL)
Location 45.438492° -71.691369°
Runways 1
Magnetic Variation 15.267° W

METAR

CYSC 110537Z AUTO 20006KT 180V240 4SM -SN BKN017 BKN025 M04/M06 A2976 RMK SLP093

Decode

TAF

TAF CYSC 102338Z 1100/1103 26007KT P6SM BKN120 TEMPO 1100/1103 P6SM -SN BKN030 BECMG 1100/1101 21007KT RMK FCST BASED ON AUTO OBS. NXT FCST WILL BE ISSUED AT 111045Z

Decode

Destination Runways

ID Width Length Bearing (true) Bearing (mag) Surface Threshold Offset Overrun Length
13 150 ft / 46 m 5,988 ft / 1,825 m 118.88° 134.15° Asphalt 0 ft / 0 m 0 ft / 0 m
31 150 ft / 46 m 5,988 ft / 1,825 m 298.90° 314.17° Asphalt 0 ft / 0 m 0 ft / 0 m

Popular Alternatives